Time;durP1;ratioP1;P1;durP2;ratioP2;P2;SDS_P1;SDS_P2;PMS_P1;PMS_P2;Temp;Humidity;BMP_temperature;BMP_pressure;BME280_temperature;BME280_humidity;BME280_pressure;Samples;Min_cycle;Max_cycle;Signal;HPM_P1;HPM_P2
2021/06/13 00:00:02;;;;;;;25.40;23.37;;;;;;;;;;6279071;22;20372;-84
2021/06/13 00:02:29;;;;;;;25.53;23.53;;;;;;;;;;6278747;22;20362;-84
2021/06/13 00:04:55;;;;;;;25.33;22.83;;;;;;;;;;6278355;22;20862;-84
2021/06/13 00:07:22;;;;;;;25.37;23.27;;;;;;;;;;6278424;22;20393;-84
2021/06/13 00:09:51;;;;;;;26.03;23.57;;;;;;;;;;6278734;22;20353;-84
2021/06/13 00:12:18;;;;;;;24.63;22.83;;;;;;;;;;6278113;22;20896;-85
2021/06/13 00:14:45;;;;;;;24.50;22.70;;;;;;;;;;6278033;22;20403;-85
2021/06/13 00:17:15;;;;;;;25.90;23.30;;;;;;;;;;6278969;22;20412;-84
2021/06/13 00:19:41;;;;;;;25.30;22.97;;;;;;;;;;6251746;22;20377;-85
2021/06/13 00:22:08;;;;;;;26.07;23.93;;;;;;;;;;6278014;22;20413;-84
2021/06/13 00:24:35;;;;;;;27.03;24.80;;;;;;;;;;6277955;22;20433;-84
2021/06/13 00:27:04;;;;;;;26.10;23.90;;;;;;;;;;6278529;22;20587;-84
2021/06/13 00:29:31;;;;;;;26.13;24.07;;;;;;;;;;6278699;22;20389;-85
2021/06/13 00:31:58;;;;;;;25.37;23.00;;;;;;;;;;6278858;22;20755;-84
2021/06/13 00:34:24;;;;;;;25.40;23.37;;;;;;;;;;6278548;22;20398;-84
2021/06/13 00:36:51;;;;;;;24.90;22.80;;;;;;;;;;6277795;22;20419;-84
2021/06/13 00:39:19;;;;;;;25.80;23.80;;;;;;;;;;6278776;22;20377;-84
2021/06/13 00:41:46;;;;;;;25.27;23.57;;;;;;;;;;6251942;22;20390;-84
2021/06/13 00:44:14;;;;;;;25.63;23.60;;;;;;;;;;6277766;22;20417;-85
2021/06/13 00:46:41;;;;;;;24.20;22.17;;;;;;;;;;6278376;22;20451;-84
2021/06/13 00:49:08;;;;;;;25.50;23.33;;;;;;;;;;6278376;22;20745;-84
2021/06/13 00:51:35;;;;;;;26.23;24.03;;;;;;;;;;6278011;22;20379;-84
2021/06/13 00:54:02;;;;;;;25.93;23.47;;;;;;;;;;6278290;22;20361;-85
2021/06/13 00:56:29;;;;;;;25.17;23.20;;;;;;;;;;6277941;22;20444;-85
2021/06/13 00:58:56;;;;;;;24.60;22.70;;;;;;;;;;6278146;22;20402;-84
2021/06/13 01:01:24;;;;;;;25.70;23.40;;;;;;;;;;6278334;22;20384;-84
2021/06/13 01:03:51;;;;;;;25.47;23.47;;;;;;;;;;6277874;22;20382;-85
2021/06/13 01:06:21;;;;;;;25.20;23.30;;;;;;;;;;6226260;22;20423;-85
2021/06/13 01:08:49;;;;;;;25.20;23.10;;;;;;;;;;6278339;22;20687;-84
2021/06/13 01:11:20;;;;;;;24.50;22.70;;;;;;;;;;6278236;22;20687;-84
2021/06/13 01:13:50;;;;;;;25.00;23.07;;;;;;;;;;6278042;22;20507;-85
2021/06/13 01:16:21;;;;;;;25.23;23.00;;;;;;;;;;6277807;22;20445;-84
2021/06/13 01:18:51;;;;;;;25.40;23.40;;;;;;;;;;6277853;22;20398;-84
2021/06/13 01:21:22;;;;;;;24.73;22.93;;;;;;;;;;6277936;22;20393;-85
2021/06/13 01:24:12;;;;;;;25.83;23.57;;;;;;;;;;6277844;22;20761;-82
2021/06/13 01:26:52;;;;;;;25.53;23.30;;;;;;;;;;6277173;22;20445;-84
2021/06/13 01:29:22;;;;;;;25.20;23.10;;;;;;;;;;6278320;22;20390;-85
2021/06/13 01:31:52;;;;;;;24.57;22.57;;;;;;;;;;6278178;22;20364;-85
2021/06/13 01:34:23;;;;;;;25.43;23.20;;;;;;;;;;6278090;22;20374;-85
2021/06/13 01:36:51;;;;;;;24.83;22.80;;;;;;;;;;6278066;22;20445;-84
2021/06/13 01:39:21;;;;;;;26.53;23.30;;;;;;;;;;6277761;22;20376;-85
2021/06/13 01:41:48;;;;;;;24.40;22.60;;;;;;;;;;6251251;22;20913;-85
2021/06/13 01:44:17;;;;;;;26.30;23.87;;;;;;;;;;6251033;22;20383;-85
2021/06/13 01:46:48;;;;;;;24.67;22.87;;;;;;;;;;6277739;22;20372;-85
2021/06/13 01:49:15;;;;;;;25.23;23.33;;;;;;;;;;6278153;22;20882;-84
2021/06/13 01:51:43;;;;;;;25.80;23.50;;;;;;;;;;6277735;22;20380;-85
2021/06/13 01:54:11;;;;;;;25.23;23.13;;;;;;;;;;6277525;22;20386;-84
2021/06/13 01:56:40;;;;;;;25.47;23.57;;;;;;;;;;6277898;22;20416;-85
2021/06/13 01:59:08;;;;;;;24.77;22.83;;;;;;;;;;6277580;22;20717;-85
2021/06/13 02:01:35;;;;;;;24.57;22.80;;;;;;;;;;6277523;22;20389;-84
2021/06/13 02:04:04;;;;;;;25.83;23.67;;;;;;;;;;6250883;22;20416;-84
2021/06/13 02:06:33;;;;;;;25.30;23.23;;;;;;;;;;6277483;22;20403;-85
2021/06/13 02:09:01;;;;;;;25.20;23.30;;;;;;;;;;6278022;22;20711;-85
2021/06/13 02:11:29;;;;;;;24.80;23.00;;;;;;;;;;6278034;22;20473;-85
2021/06/13 02:13:58;;;;;;;24.80;22.90;;;;;;;;;;6277480;22;20371;-85
2021/06/13 02:16:25;;;;;;;24.60;22.90;;;;;;;;;;6277587;22;20411;-84
2021/06/13 02:18:52;;;;;;;25.00;22.63;;;;;;;;;;6277961;22;20419;-85
2021/06/13 02:21:20;;;;;;;25.37;23.53;;;;;;;;;;6277403;22;20371;-85
2021/06/13 02:23:47;;;;;;;25.27;23.27;;;;;;;;;;6277479;22;20418;-84
2021/06/13 02:26:15;;;;;;;25.70;23.50;;;;;;;;;;6277007;22;20383;-85
2021/06/13 02:28:44;;;;;;;26.93;24.70;;;;;;;;;;6277438;22;20421;-85
2021/06/13 02:31:11;;;;;;;26.20;24.07;;;;;;;;;;6277847;22;20369;-85
2021/06/13 02:33:40;;;;;;;25.37;23.23;;;;;;;;;;6250512;22;20463;-85
2021/06/13 02:36:07;;;;;;;26.00;24.10;;;;;;;;;;6278866;22;20426;-85
2021/06/13 02:38:35;;;;;;;25.90;24.00;;;;;;;;;;6279558;22;20720;-85
2021/06/13 02:41:02;;;;;;;24.97;23.27;;;;;;;;;;6280021;22;20397;-85
2021/06/13 02:43:29;;;;;;;25.63;23.93;;;;;;;;;;6279360;22;20379;-85
2021/06/13 02:45:56;;;;;;;25.47;23.47;;;;;;;;;;6279827;22;20422;-85
2021/06/13 02:48:24;;;;;;;25.97;23.50;;;;;;;;;;6279747;22;20368;-85
2021/06/13 02:50:52;;;;;;;25.20;23.40;;;;;;;;;;6279350;22;20416;-84
2021/06/13 02:53:21;;;;;;;25.63;23.73;;;;;;;;;;6279283;22;20380;-85
2021/06/13 02:55:52;;;;;;;25.40;23.27;;;;;;;;;;6279190;22;20423;-84
2021/06/13 02:58:23;;;;;;;24.40;22.70;;;;;;;;;;6279746;22;20440;-83
2021/06/13 03:00:51;;;;;;;25.33;23.23;;;;;;;;;;6279651;22;20690;-85
2021/06/13 03:03:21;;;;;;;26.47;24.47;;;;;;;;;;6279713;22;20401;-85
2021/06/13 03:05:49;;;;;;;24.67;22.67;;;;;;;;;;6279200;22;20422;-85
2021/06/13 03:08:16;;;;;;;25.77;23.90;;;;;;;;;;6279605;22;20376;-85
2021/06/13 03:10:43;;;;;;;25.50;23.50;;;;;;;;;;6279464;22;20405;-85
2021/06/13 03:13:12;;;;;;;25.33;23.40;;;;;;;;;;6279188;22;20458;-85
2021/06/13 03:15:39;;;;;;;27.60;25.13;;;;;;;;;;6279294;22;20426;-85
2021/06/13 03:18:07;;;;;;;25.83;24.03;;;;;;;;;;6279521;22;20386;-85
2021/06/13 03:20:34;;;;;;;24.47;22.60;;;;;;;;;;6252696;22;20407;-85
2021/06/13 03:23:01;;;;;;;25.90;24.10;;;;;;;;;;6279519;22;20372;-85
2021/06/13 03:25:28;;;;;;;26.93;24.73;;;;;;;;;;6279184;22;20402;-85
2021/06/13 03:27:55;;;;;;;26.33;24.13;;;;;;;;;;6278860;22;20440;-85
2021/06/13 03:30:24;;;;;;;26.50;24.23;;;;;;;;;;6278656;22;20467;-84
2021/06/13 03:32:51;;;;;;;24.40;22.70;;;;;;;;;;6278568;22;20919;-85
2021/06/13 03:35:19;;;;;;;25.50;23.70;;;;;;;;;;6278845;22;20402;-84
2021/06/13 03:37:46;;;;;;;26.93;24.90;;;;;;;;;;6279315;22;20667;-84
2021/06/13 03:40:14;;;;;;;26.60;24.20;;;;;;;;;;6279084;22;20409;-84
2021/06/13 03:42:42;;;;;;;25.20;22.87;;;;;;;;;;6278674;22;20385;-85
2021/06/13 03:45:10;;;;;;;26.37;24.27;;;;;;;;;;6278708;22;20372;-85
2021/06/13 03:47:40;;;;;;;25.20;23.20;;;;;;;;;;6278516;22;20397;-84
2021/06/13 03:50:10;;;;;;;24.93;23.03;;;;;;;;;;6278586;22;20712;-84
2021/06/13 03:52:37;;;;;;;24.93;23.10;;;;;;;;;;6278712;22;20487;-84
2021/06/13 03:55:05;;;;;;;25.67;23.40;;;;;;;;;;6251660;22;20383;-85
2021/06/13 03:57:33;;;;;;;25.03;23.03;;;;;;;;;;6279160;22;20390;-85
2021/06/13 04:00:02;;;;;;;24.87;22.80;;;;;;;;;;6279146;22;20389;-84
2021/06/13 04:02:30;;;;;;;24.83;22.93;;;;;;;;;;6279050;22;20372;-84
2021/06/13 04:04:58;;;;;;;24.97;23.07;;;;;;;;;;6278889;22;20372;-84
2021/06/13 04:07:26;;;;;;;24.70;22.67;;;;;;;;;;6278953;22;20401;-84
2021/06/13 04:09:54;;;;;;;25.67;23.47;;;;;;;;;;6278906;22;20364;-84
2021/06/13 04:12:22;;;;;;;24.40;22.53;;;;;;;;;;6278954;22;20365;-84
2021/06/13 04:14:50;;;;;;;23.97;22.27;;;;;;;;;;6278665;22;20372;-84
2021/06/13 04:17:19;;;;;;;24.70;22.70;;;;;;;;;;6278737;22;20410;-84
2021/06/13 04:19:47;;;;;;;25.13;23.07;;;;;;;;;;6278772;22;20384;-84
2021/06/13 04:22:17;;;;;;;25.47;23.37;;;;;;;;;;6278358;22;20368;-84
2021/06/13 04:24:45;;;;;;;25.27;23.27;;;;;;;;;;6278474;22;20411;-84
2021/06/13 04:27:13;;;;;;;24.70;22.60;;;;;;;;;;6251488;22;20496;-84
2021/06/13 04:29:41;;;;;;;26.00;23.80;;;;;;;;;;6252178;22;20398;-84
2021/06/13 04:32:09;;;;;;;28.53;26.40;;;;;;;;;;6278550;22;20380;-84
2021/06/13 04:34:37;;;;;;;25.07;23.10;;;;;;;;;;6278339;22;20427;-84
2021/06/13 04:37:05;;;;;;;26.53;24.30;;;;;;;;;;6278339;22;20412;-84
2021/06/13 04:39:34;;;;;;;26.00;24.10;;;;;;;;;;6278192;22;20413;-84
2021/06/13 04:42:03;;;;;;;25.77;23.73;;;;;;;;;;6278226;22;20375;-84
2021/06/13 04:44:30;;;;;;;26.30;24.10;;;;;;;;;;6278084;22;20411;-84
2021/06/13 04:46:58;;;;;;;26.67;24.63;;;;;;;;;;6251587;22;20380;-84
2021/06/13 04:49:25;;;;;;;25.87;23.57;;;;;;;;;;6252215;22;20365;-84
2021/06/13 04:51:56;;;;;;;26.93;24.73;;;;;;;;;;6278419;22;20393;-84
2021/06/13 04:54:38;;;;;;;27.73;25.43;;;;;;;;;;6278037;22;20871;-84
2021/06/13 04:57:28;;;;;;;27.20;25.00;;;;;;;;;;6275089;22;20429;-84
2021/06/13 04:59:55;;;;;;;26.93;24.80;;;;;;;;;;6273288;22;20695;-84
2021/06/13 05:02:22;;;;;;;27.63;25.07;;;;;;;;;;6278124;22;20845;-84
2021/06/13 05:04:50;;;;;;;27.20;24.63;;;;;;;;;;6277906;22;20401;-84
2021/06/13 05:07:17;;;;;;;26.37;23.83;;;;;;;;;;6278169;22;20393;-84
2021/06/13 05:09:45;;;;;;;26.40;24.07;;;;;;;;;;6278812;22;20421;-84
2021/06/13 05:12:14;;;;;;;25.10;23.30;;;;;;;;;;6278265;22;20430;-84
2021/06/13 05:14:41;;;;;;;26.97;24.97;;;;;;;;;;6277983;22;20431;-84
2021/06/13 05:17:09;;;;;;;26.80;24.40;;;;;;;;;;6277790;22;20429;-84
2021/06/13 05:19:36;;;;;;;26.90;24.70;;;;;;;;;;6251256;22;20387;-84
2021/06/13 05:22:05;;;;;;;27.80;25.37;;;;;;;;;;6277689;22;20405;-84
2021/06/13 05:24:33;;;;;;;27.70;25.50;;;;;;;;;;6277709;22;20429;-83
2021/06/13 05:27:00;;;;;;;28.70;25.80;;;;;;;;;;6277562;22;20444;-83
2021/06/13 05:29:30;;;;;;;27.43;24.10;;;;;;;;;;6277586;22;20394;-83
2021/06/13 05:31:57;;;;;;;26.53;24.30;;;;;;;;;;6277912;22;20762;-83
2021/06/13 05:34:24;;;;;;;26.30;24.03;;;;;;;;;;6277427;22;20375;-83
2021/06/13 05:36:52;;;;;;;26.50;24.33;;;;;;;;;;6277839;22;20730;-83
2021/06/13 05:39:20;;;;;;;26.70;24.37;;;;;;;;;;6250850;22;20882;-84
2021/06/13 05:41:47;;;;;;;26.77;24.50;;;;;;;;;;6277450;22;20452;-84
2021/06/13 05:44:14;;;;;;;24.93;23.13;;;;;;;;;;6252491;22;20398;-84
2021/06/13 05:46:43;;;;;;;26.33;24.10;;;;;;;;;;6277869;22;20382;-83
2021/06/13 05:49:11;;;;;;;26.37;24.10;;;;;;;;;;6277026;22;20413;-84
2021/06/13 05:51:38;;;;;;;27.63;25.03;;;;;;;;;;6251041;22;20408;-83
2021/06/13 05:54:06;;;;;;;25.47;23.20;;;;;;;;;;6250651;22;20416;-83
2021/06/13 05:56:34;;;;;;;26.47;24.13;;;;;;;;;;6276194;22;20759;-84
2021/06/13 05:59:01;;;;;;;29.37;25.93;;;;;;;;;;6277427;22;20446;-85
2021/06/13 06:01:29;;;;;;;25.17;22.87;;;;;;;;;;6277153;22;20420;-85
2021/06/13 06:03:57;;;;;;;25.30;23.17;;;;;;;;;;6277879;22;20365;-86
2021/06/13 06:06:25;;;;;;;25.47;23.37;;;;;;;;;;6278094;22;20733;-87
2021/06/13 06:08:52;;;;;;;25.93;23.80;;;;;;;;;;6277322;22;20405;-86
2021/06/13 06:11:19;;;;;;;25.10;22.97;;;;;;;;;;6277861;22;20368;-86
2021/06/13 06:13:52;;;;;;;24.33;22.20;;;;;;;;;;6277468;22;20390;-87
2021/06/13 06:16:20;;;;;;;25.20;23.00;;;;;;;;;;6277057;22;20484;-87
2021/06/13 06:18:47;;;;;;;25.97;23.60;;;;;;;;;;6278015;22;20368;-86
2021/06/13 06:21:16;;;;;;;24.50;22.40;;;;;;;;;;6278007;22;20391;-86
2021/06/13 06:23:44;;;;;;;24.07;21.87;;;;;;;;;;6277617;22;21127;-86
2021/06/13 06:26:11;;;;;;;24.50;22.50;;;;;;;;;;6277751;22;20861;-86
2021/06/13 06:28:39;;;;;;;23.80;21.80;;;;;;;;;;6277724;22;20381;-86
2021/06/13 06:31:06;;;;;;;23.30;21.20;;;;;;;;;;6277924;22;20400;-84
2021/06/13 06:33:33;;;;;;;24.57;22.57;;;;;;;;;;6277435;22;20394;-86
2021/06/13 06:36:01;;;;;;;23.30;21.70;;;;;;;;;;6277862;22;20373;-85
2021/06/13 06:38:30;;;;;;;24.60;22.73;;;;;;;;;;6277750;22;20887;-85
2021/06/13 06:40:59;;;;;;;22.20;20.50;;;;;;;;;;6277604;22;20409;-86
2021/06/13 06:43:26;;;;;;;23.27;21.57;;;;;;;;;;6250873;22;20870;-86
2021/06/13 06:45:54;;;;;;;22.40;20.80;;;;;;;;;;6277549;22;20393;-86
2021/06/13 06:48:21;;;;;;;23.20;21.37;;;;;;;;;;6277583;22;20369;-85
2021/06/13 06:50:48;;;;;;;22.67;21.03;;;;;;;;;;6277464;22;20379;-86
2021/06/13 06:53:16;;;;;;;23.87;22.07;;;;;;;;;;6277392;22;20397;-86
2021/06/13 06:55:44;;;;;;;22.00;20.40;;;;;;;;;;6277762;22;20372;-86
2021/06/13 06:58:12;;;;;;;23.50;21.63;;;;;;;;;;6277650;22;20768;-86
2021/06/13 07:00:40;;;;;;;23.77;21.90;;;;;;;;;;6250977;22;20853;-86
2021/06/13 07:03:11;;;;;;;23.27;21.40;;;;;;;;;;6277761;22;20398;-93
2021/06/13 07:05:38;;;;;;;23.20;21.60;;;;;;;;;;6278525;22;20422;-87
2021/06/13 07:08:06;;;;;;;23.27;21.50;;;;;;;;;;6277997;22;20848;-86
2021/06/13 07:10:34;;;;;;;23.80;22.20;;;;;;;;;;6277779;22;20834;-86
2021/06/13 07:13:03;;;;;;;24.40;22.20;;;;;;;;;;6277416;22;20389;-86
2021/06/13 07:15:30;;;;;;;23.20;21.37;;;;;;;;;;6250830;22;20706;-86
2021/06/13 07:17:57;;;;;;;23.17;21.40;;;;;;;;;;6277621;22;20934;-86
2021/06/13 07:20:25;;;;;;;21.57;20.20;;;;;;;;;;6277182;22;20373;-86
2021/06/13 07:22:53;;;;;;;23.17;21.67;;;;;;;;;;6279443;22;20387;-87
2021/06/13 07:25:21;;;;;;;23.17;21.40;;;;;;;;;;6279002;22;20500;-86
2021/06/13 07:27:48;;;;;;;24.07;22.27;;;;;;;;;;6252781;22;20411;-86
2021/06/13 07:30:18;;;;;;;24.33;22.70;;;;;;;;;;6278907;22;20403;-86
2021/06/13 07:32:46;;;;;;;23.20;21.20;;;;;;;;;;6252591;22;20410;-86
2021/06/13 07:35:13;;;;;;;22.80;21.00;;;;;;;;;;6279394;22;20500;-86
2021/06/13 07:37:41;;;;;;;22.90;21.40;;;;;;;;;;6279037;22;20933;-90
2021/06/13 07:40:10;;;;;;;22.10;20.60;;;;;;;;;;6279433;22;20372;-85
2021/06/13 07:42:37;;;;;;;22.60;21.13;;;;;;;;;;6278945;22;20419;-86
2021/06/13 07:45:06;;;;;;;22.33;20.80;;;;;;;;;;6279269;22;20390;-86
2021/06/13 07:47:36;;;;;;;22.30;20.80;;;;;;;;;;6279378;22;20375;-85
2021/06/13 07:50:03;;;;;;;22.10;20.50;;;;;;;;;;6279264;22;20447;-86
2021/06/13 07:52:32;;;;;;;22.37;20.57;;;;;;;;;;6279239;22;20743;-86
2021/06/13 07:55:00;;;;;;;23.13;21.50;;;;;;;;;;6278890;22;20370;-86
2021/06/13 07:57:28;;;;;;;23.60;21.80;;;;;;;;;;6251634;22;20529;-92
2021/06/13 07:59:55;;;;;;;23.57;21.80;;;;;;;;;;6275844;22;20385;-83
2021/06/13 08:02:23;;;;;;;22.50;20.97;;;;;;;;;;6277992;22;20847;-84
2021/06/13 08:04:56;;;;;;;24.20;22.60;;;;;;;;;;6278140;22;20452;-83
2021/06/13 08:07:23;;;;;;;23.27;21.33;;;;;;;;;;6278897;22;20406;-85
2021/06/13 08:09:50;;;;;;;23.77;21.80;;;;;;;;;;6277785;22;20493;-85
2021/06/13 08:12:18;;;;;;;22.93;21.43;;;;;;;;;;6278762;22;20385;-84
2021/06/13 08:14:46;;;;;;;23.53;21.60;;;;;;;;;;6278523;22;20471;-85
2021/06/13 08:17:13;;;;;;;22.03;20.60;;;;;;;;;;6251628;22;20442;-85
2021/06/13 08:19:40;;;;;;;22.83;20.93;;;;;;;;;;6278667;22;20410;-85
2021/06/13 08:22:10;;;;;;;22.90;21.00;;;;;;;;;;6277996;22;20392;-85
2021/06/13 08:24:38;;;;;;;22.67;21.07;;;;;;;;;;6250758;22;20809;-85
2021/06/13 08:27:06;;;;;;;22.60;21.20;;;;;;;;;;6278264;22;20427;-85
2021/06/13 08:29:34;;;;;;;23.50;21.80;;;;;;;;;;6251472;22;20388;-85
2021/06/13 08:32:01;;;;;;;22.63;21.10;;;;;;;;;;6279015;22;20372;-85
2021/06/13 08:34:28;;;;;;;23.23;21.50;;;;;;;;;;6277618;22;20400;-86
2021/06/13 08:36:56;;;;;;;23.43;21.80;;;;;;;;;;6277729;22;20946;-84
2021/06/13 08:39:25;;;;;;;22.37;20.87;;;;;;;;;;6277580;22;20389;-85
2021/06/13 08:41:53;;;;;;;22.87;21.47;;;;;;;;;;6277734;22;20399;-85
2021/06/13 08:44:23;;;;;;;23.13;21.37;;;;;;;;;;6277810;22;20835;-85
2021/06/13 08:46:51;;;;;;;22.67;21.27;;;;;;;;;;6278185;22;20402;-86
2021/06/13 08:49:21;;;;;;;24.07;22.43;;;;;;;;;;6278341;22;20403;-85
2021/06/13 08:51:49;;;;;;;22.47;21.00;;;;;;;;;;6278877;22;20403;-85
2021/06/13 08:54:16;;;;;;;23.23;21.73;;;;;;;;;;6278055;22;20414;-85
2021/06/13 08:56:45;;;;;;;23.60;21.80;;;;;;;;;;6277955;22;20381;-85
2021/06/13 08:59:14;;;;;;;22.90;21.23;;;;;;;;;;6277805;22;20398;-85
2021/06/13 09:01:41;;;;;;;24.10;22.40;;;;;;;;;;6278155;22;20422;-85
2021/06/13 09:04:08;;;;;;;24.30;22.70;;;;;;;;;;6277662;22;20399;-85
2021/06/13 09:06:36;;;;;;;23.30;21.70;;;;;;;;;;6278350;22;20770;-85
2021/06/13 09:09:03;;;;;;;22.30;20.70;;;;;;;;;;6278021;22;20365;-85
2021/06/13 09:11:31;;;;;;;22.87;21.10;;;;;;;;;;6277918;22;20374;-85
2021/06/13 09:14:11;;;;;;;24.33;22.50;;;;;;;;;;6277771;22;20365;-85
2021/06/13 09:16:42;;;;;;;23.30;21.70;;;;;;;;;;6250657;22;20402;-84
2021/06/13 09:19:09;;;;;;;23.93;22.23;;;;;;;;;;6277237;22;20442;-84
2021/06/13 09:21:39;;;;;;;22.70;21.30;;;;;;;;;;6277744;22;20413;-84
2021/06/13 09:24:17;;;;;;;23.27;21.60;;;;;;;;;;6278064;22;20526;-85
2021/06/13 09:26:45;;;;;;;23.20;21.70;;;;;;;;;;6277752;22;20452;-85
2021/06/13 09:29:14;;;;;;;26.27;24.07;;;;;;;;;;6278180;22;20377;-84
2021/06/13 09:31:42;;;;;;;23.30;21.60;;;;;;;;;;6279882;22;20377;-84
2021/06/13 09:34:14;;;;;;;22.67;21.23;;;;;;;;;;6277957;22;20372;-88
2021/06/13 09:36:41;;;;;;;23.13;21.57;;;;;;;;;;6278335;22;20372;-84
2021/06/13 09:39:09;;;;;;;23.50;21.90;;;;;;;;;;6278017;22;20486;-85
2021/06/13 09:41:39;;;;;;;25.27;23.17;;;;;;;;;;6278737;22;20822;-84
2021/06/13 09:44:07;;;;;;;23.53;21.83;;;;;;;;;;6277690;22;20396;-83
2021/06/13 09:46:37;;;;;;;23.10;21.43;;;;;;;;;;6277408;22;20382;-84
2021/06/13 09:49:07;;;;;;;24.50;22.70;;;;;;;;;;6277537;22;20809;-85
2021/06/13 09:51:35;;;;;;;24.17;22.40;;;;;;;;;;6250243;22;20712;-87
2021/06/13 09:54:04;;;;;;;23.93;22.20;;;;;;;;;;6277348;22;20414;-86
2021/06/13 09:56:32;;;;;;;23.47;21.87;;;;;;;;;;6277794;22;20413;-91
2021/06/13 09:59:01;;;;;;;23.33;21.67;;;;;;;;;;6278088;22;20435;-85
2021/06/13 10:01:30;;;;;;;23.00;21.30;;;;;;;;;;6277654;22;20399;-86
2021/06/13 10:04:00;;;;;;;23.40;21.57;;;;;;;;;;6278190;22;20386;-87
2021/06/13 10:06:30;;;;;;;23.33;21.73;;;;;;;;;;6278199;22;20368;-87
2021/06/13 10:08:58;;;;;;;24.47;22.77;;;;;;;;;;6277690;22;20365;-87
2021/06/13 10:11:26;;;;;;;24.10;22.50;;;;;;;;;;6278085;22;20744;-86
2021/06/13 10:13:55;;;;;;;23.80;21.90;;;;;;;;;;6277192;22;20387;-86
2021/06/13 10:16:33;;;;;;;25.07;23.07;;;;;;;;;;6277549;22;20369;-87
2021/06/13 10:19:18;;;;;;;23.53;22.00;;;;;;;;;;6277916;22;20449;-85
2021/06/13 10:21:47;;;;;;;24.10;22.50;;;;;;;;;;6269804;22;20405;-87
2021/06/13 10:24:16;;;;;;;23.73;22.07;;;;;;;;;;6251236;22;20405;-86
2021/06/13 10:26:44;;;;;;;23.10;21.70;;;;;;;;;;6277330;22;20939;-86
2021/06/13 10:29:14;;;;;;;23.33;21.77;;;;;;;;;;6277759;22;20411;-86
2021/06/13 10:31:41;;;;;;;23.07;21.27;;;;;;;;;;6277634;22;20419;-86
2021/06/13 10:34:10;;;;;;;24.97;23.13;;;;;;;;;;6277906;22;20390;-86
2021/06/13 10:36:40;;;;;;;23.90;22.20;;;;;;;;;;6277895;22;20403;-86
2021/06/13 10:39:08;;;;;;;23.60;21.60;;;;;;;;;;6277423;22;20445;-87
2021/06/13 10:41:35;;;;;;;24.77;22.90;;;;;;;;;;6277850;22;20885;-87
2021/06/13 10:44:04;;;;;;;22.50;21.00;;;;;;;;;;6277512;22;20909;-86
2021/06/13 10:46:33;;;;;;;23.23;21.60;;;;;;;;;;6277923;22;20398;-87
2021/06/13 10:49:01;;;;;;;24.00;22.40;;;;;;;;;;6277589;22;20398;-86
2021/06/13 10:51:41;;;;;;;23.70;22.00;;;;;;;;;;6277826;22;20800;-86
2021/06/13 10:54:22;;;;;;;23.67;22.17;;;;;;;;;;6277310;22;20372;-86
2021/06/13 10:56:50;;;;;;;23.97;21.93;;;;;;;;;;6278446;22;20371;-87
2021/06/13 10:59:18;;;;;;;24.27;22.77;;;;;;;;;;6279254;22;20478;-86
2021/06/13 11:02:08;;;;;;;24.53;22.63;;;;;;;;;;6252595;22;20885;-83
2021/06/13 11:04:42;;;;;;;22.83;21.40;;;;;;;;;;6254113;22;20373;-87
2021/06/13 11:07:11;;;;;;;22.93;21.17;;;;;;;;;;6279361;22;20392;-87
2021/06/13 11:09:53;;;;;;;23.23;21.73;;;;;;;;;;6279823;22;20376;-86
2021/06/13 11:12:35;;;;;;;23.73;22.17;;;;;;;;;;6248793;22;20874;-85
2021/06/13 11:15:03;;;;;;;23.27;21.77;;;;;;;;;;6278892;22;20386;-86
2021/06/13 11:17:52;;;;;;;23.33;21.63;;;;;;;;;;6279473;22;20863;-86
2021/06/13 11:20:47;;;;;;;24.20;22.53;;;;;;;;;;6279601;22;20394;-86
2021/06/13 11:23:32;;;;;;;23.70;22.00;;;;;;;;;;6279034;22;20409;-87
2021/06/13 11:26:03;;;;;;;23.33;21.83;;;;;;;;;;6277831;22;20418;-85
2021/06/13 11:28:32;;;;;;;22.97;21.47;;;;;;;;;;6279413;22;20443;-87
2021/06/13 11:31:00;;;;;;;23.03;21.43;;;;;;;;;;6279949;22;20429;-87
2021/06/13 11:33:37;;;;;;;22.60;21.20;;;;;;;;;;6279084;22;20400;-88
2021/06/13 11:36:04;;;;;;;23.00;21.20;;;;;;;;;;6278964;22;20416;-87
2021/06/13 11:38:32;;;;;;;23.30;21.70;;;;;;;;;;6278833;22;20440;-86
2021/06/13 11:41:02;;;;;;;23.50;21.73;;;;;;;;;;6279146;22;20876;-86
2021/06/13 11:43:31;;;;;;;23.90;21.97;;;;;;;;;;6279587;22;20401;-86
2021/06/13 11:46:01;;;;;;;22.67;21.07;;;;;;;;;;6278815;22;20386;-86
2021/06/13 11:48:29;;;;;;;24.73;22.93;;;;;;;;;;6279242;22;20692;-86
2021/06/13 11:51:04;;;;;;;22.30;20.90;;;;;;;;;;6279230;22;20398;-87
2021/06/13 11:53:54;;;;;;;23.47;21.60;;;;;;;;;;6278936;22;20695;-86
2021/06/13 11:56:53;;;;;;;23.07;21.27;;;;;;;;;;6278877;22;20365;-87
2021/06/13 11:59:22;;;;;;;23.77;22.17;;;;;;;;;;6279143;22;20439;-87
2021/06/13 12:01:54;;;;;;;24.10;22.27;;;;;;;;;;6278923;22;20369;-88
2021/06/13 12:04:22;;;;;;;23.43;21.83;;;;;;;;;;6278971;22;20407;-87
2021/06/13 12:06:50;;;;;;;22.83;21.43;;;;;;;;;;6278442;22;20399;-86
2021/06/13 12:09:18;;;;;;;22.93;21.43;;;;;;;;;;6277579;22;20381;-85
2021/06/13 12:11:50;;;;;;;22.80;21.20;;;;;;;;;;6278951;22;20406;-87
2021/06/13 12:14:21;;;;;;;22.60;21.10;;;;;;;;;;6278128;22;20428;-84
2021/06/13 12:16:49;;;;;;;23.40;21.70;;;;;;;;;;6277401;22;20379;-84
2021/06/13 12:19:17;;;;;;;23.17;21.43;;;;;;;;;;6278215;22;20435;-85
2021/06/13 12:21:44;;;;;;;23.83;21.83;;;;;;;;;;6277422;22;20881;-84
2021/06/13 12:24:14;;;;;;;22.77;21.20;;;;;;;;;;6277525;22;20940;-85
2021/06/13 12:29:29;;;;;;;23.43;21.70;;;;;;;;;;6277910;22;20425;-83
2021/06/13 12:31:56;;;;;;;23.57;22.07;;;;;;;;;;6277830;22;20436;-84
2021/06/13 12:34:24;;;;;;;24.23;22.47;;;;;;;;;;6278529;22;20865;-85
2021/06/13 12:36:52;;;;;;;24.20;22.70;;;;;;;;;;6277934;22;20381;-85
2021/06/13 12:39:27;;;;;;;24.93;23.20;;;;;;;;;;6278346;22;20413;-84
2021/06/13 12:41:54;;;;;;;23.50;21.67;;;;;;;;;;6278336;22;20841;-85
2021/06/13 12:44:22;;;;;;;24.50;22.70;;;;;;;;;;6278174;22;20396;-84
2021/06/13 12:46:51;;;;;;;23.03;21.40;;;;;;;;;;6278477;22;20403;-85
2021/06/13 12:49:19;;;;;;;23.70;21.83;;;;;;;;;;6279222;22;20404;-84
2021/06/13 12:51:46;;;;;;;22.93;21.47;;;;;;;;;;6278180;22;20379;-85
2021/06/13 12:54:15;;;;;;;22.93;21.43;;;;;;;;;;6277979;22;20399;-84
2021/06/13 12:56:42;;;;;;;23.57;21.80;;;;;;;;;;6277970;22;20930;-85
2021/06/13 12:59:11;;;;;;;24.60;23.00;;;;;;;;;;6278269;22;20804;-84
2021/06/13 13:01:41;;;;;;;24.10;22.50;;;;;;;;;;6278036;22;20849;-84
2021/06/13 13:04:10;;;;;;;23.83;22.33;;;;;;;;;;6278009;22;20402;-84
2021/06/13 13:06:50;;;;;;;24.33;22.50;;;;;;;;;;6277900;22;20416;-85
2021/06/13 13:09:17;;;;;;;24.40;22.90;;;;;;;;;;6251097;22;20390;-84
2021/06/13 13:11:52;;;;;;;22.77;21.27;;;;;;;;;;6251247;22;20415;-84
2021/06/13 13:14:21;;;;;;;23.20;21.40;;;;;;;;;;6278212;22;20375;-84
2021/06/13 13:16:48;;;;;;;23.77;21.97;;;;;;;;;;6278441;22;20448;-84
2021/06/13 13:19:30;;;;;;;24.27;22.57;;;;;;;;;;6278139;22;20414;-84
2021/06/13 13:21:58;;;;;;;23.37;21.87;;;;;;;;;;6277739;22;20446;-84
2021/06/13 13:24:29;;;;;;;23.27;21.47;;;;;;;;;;6278050;22;20398;-84
2021/06/13 13:27:00;;;;;;;24.17;22.57;;;;;;;;;;6277856;22;20462;-84
2021/06/13 13:29:38;;;;;;;23.20;21.70;;;;;;;;;;6278144;22;20400;-84
2021/06/13 13:32:06;;;;;;;23.30;21.60;;;;;;;;;;6277764;22;20461;-84
2021/06/13 13:34:35;;;;;;;23.43;21.73;;;;;;;;;;6277993;22;20400;-84
2021/06/13 13:37:09;;;;;;;24.73;22.83;;;;;;;;;;6277565;22;20870;-84
2021/06/13 13:39:36;;;;;;;24.37;22.60;;;;;;;;;;6277929;22;20436;-85
2021/06/13 13:42:06;;;;;;;23.97;22.13;;;;;;;;;;6277989;22;20395;-84
2021/06/13 13:44:34;;;;;;;24.60;22.57;;;;;;;;;;6277966;22;20407;-84
2021/06/13 13:47:04;;;;;;;23.90;22.20;;;;;;;;;;6277438;22;20435;-84
2021/06/13 13:49:31;;;;;;;24.20;22.70;;;;;;;;;;6277841;22;20692;-84
2021/06/13 13:52:00;;;;;;;25.23;23.43;;;;;;;;;;6278033;22;20445;-84
2021/06/13 13:54:29;;;;;;;24.13;22.50;;;;;;;;;;6277343;22;21000;-84
2021/06/13 13:56:57;;;;;;;24.77;23.00;;;;;;;;;;6277382;22;20374;-84
2021/06/13 13:59:24;;;;;;;23.50;22.03;;;;;;;;;;6250829;22;20452;-84
2021/06/13 14:01:52;;;;;;;23.57;21.97;;;;;;;;;;6277466;22;20701;-84
2021/06/13 14:04:21;;;;;;;23.83;22.23;;;;;;;;;;6277815;22;20407;-83
2021/06/13 14:06:49;;;;;;;24.13;22.43;;;;;;;;;;6250777;22;20475;-84
2021/06/13 14:09:18;;;;;;;24.10;22.50;;;;;;;;;;6277778;22;20407;-84
2021/06/13 14:11:47;;;;;;;24.10;22.30;;;;;;;;;;6277754;22;20406;-84
2021/06/13 14:14:15;;;;;;;24.43;22.83;;;;;;;;;;6277709;22;20367;-84
2021/06/13 14:16:42;;;;;;;24.50;22.77;;;;;;;;;;6277696;22;20492;-85
2021/06/13 14:19:11;;;;;;;24.50;22.87;;;;;;;;;;6277826;22;20439;-85
2021/06/13 14:21:38;;;;;;;24.03;22.40;;;;;;;;;;6277342;22;20459;-84
2021/06/13 14:24:06;;;;;;;24.30;22.70;;;;;;;;;;6277608;22;20723;-84
2021/06/13 14:26:35;;;;;;;24.20;22.60;;;;;;;;;;6277027;22;20421;-84
2021/06/13 14:29:02;;;;;;;23.70;22.20;;;;;;;;;;6277651;22;20408;-84